createdAt,value
2022-10-08T00:49:56.513Z,10.49
2022-10-08T01:09:59.396Z,10.70
2022-10-08T01:30:05.856Z,10.57
2022-10-08T01:50:08.653Z,10.41
2022-10-08T02:10:11.171Z,10.27
2022-10-08T02:30:19.760Z,10.12
2022-10-08T02:50:26.249Z,10.17
2022-10-08T03:10:28.875Z,10.15
2022-10-08T03:30:40.732Z,9.85
2022-10-08T03:50:43.556Z,9.37
2022-10-08T04:10:46.127Z,8.86
2022-10-08T04:30:48.669Z,8.92
2022-10-08T04:50:51.279Z,8.39
2022-10-08T05:10:53.728Z,8.46
2022-10-08T05:30:56.221Z,8.73
2022-10-08T05:50:59.169Z,9.29
2022-10-08T06:11:01.603Z,10.23
2022-10-08T06:31:04.360Z,11.05
2022-10-08T06:51:08.154Z,11.76
2022-10-08T07:11:10.575Z,13.13
2022-10-08T07:31:13.061Z,15.26
2022-10-08T07:51:16.344Z,16.39
2022-10-08T08:11:18.769Z,16.75
2022-10-08T08:31:21.811Z,16.86
2022-10-08T08:51:24.557Z,18.08
2022-10-08T09:11:27.038Z,18.53
2022-10-08T09:31:31.323Z,20.05
2022-10-08T09:51:34.267Z,20.33
2022-10-08T10:11:36.726Z,20.30
2022-10-08T10:31:39.321Z,20.57
2022-10-08T10:51:42.346Z,20.23
2022-10-08T11:11:44.781Z,19.74
2022-10-08T11:31:48.010Z,20.12
2022-10-08T11:51:53.769Z,20.22
2022-10-08T12:11:56.235Z,20.90
2022-10-08T12:31:58.683Z,20.43
2022-10-08T12:52:01.179Z,20.30
2022-10-08T13:12:04.230Z,20.16
2022-10-08T13:32:06.820Z,19.87
2022-10-08T13:52:09.547Z,20.03
2022-10-08T14:12:15.341Z,19.64
2022-10-08T14:32:17.992Z,19.08
2022-10-08T14:52:21.786Z,18.85
2022-10-08T15:12:24.657Z,18.54
2022-10-08T15:32:30.460Z,17.90
2022-10-08T15:52:34.530Z,17.33
2022-10-08T16:12:36.942Z,16.63
2022-10-08T16:32:39.655Z,15.89
2022-10-08T16:52:42.319Z,15.23
2022-10-08T17:12:45.123Z,14.70
2022-10-08T17:32:48.283Z,14.54
2022-10-08T17:52:51.365Z,14.47
2022-10-08T18:12:54.174Z,14.26
2022-10-08T18:32:58.318Z,14.12
2022-10-08T18:53:00.826Z,14.53
2022-10-08T19:13:03.598Z,14.58
2022-10-08T19:33:06.325Z,14.71
2022-10-08T19:53:09.210Z,14.68
2022-10-08T20:13:11.893Z,14.52
2022-10-08T20:33:14.566Z,14.54
2022-10-08T20:53:17.329Z,14.30
2022-10-08T21:13:19.886Z,14.34
2022-10-08T21:33:22.673Z,14.18
2022-10-08T21:53:25.154Z,13.76
2022-10-08T22:13:27.725Z,13.55
2022-10-08T22:33:30.320Z,13.78
2022-10-08T22:53:32.884Z,13.56
2022-10-08T23:13:35.617Z,13.49
2022-10-08T23:33:39.299Z,13.22
2022-10-08T23:53:41.944Z,11.52
